sensor_id;sensor_type;location;lat;lon;timestamp;pressure;altitude;pressure_sealevel;temperature;humidity
57801;BME280;43627;42.728;23.256;2023-07-13T06:47:31;95306.31;;;28.50;51.26
57801;BME280;43627;42.728;23.256;2023-07-13T06:50:00;95306.44;;;28.77;50.34
57801;BME280;43627;42.728;23.256;2023-07-13T06:52:26;95304.94;;;29.18;47.79
57801;BME280;43627;42.728;23.256;2023-07-13T06:54:53;95303.78;;;29.38;48.54
57801;BME280;43627;42.728;23.256;2023-07-13T06:57:20;95307.75;;;29.52;47.03
57801;BME280;43627;42.728;23.256;2023-07-13T06:59:46;95302.63;;;29.58;46.85
57801;BME280;43627;42.728;23.256;2023-07-13T07:02:13;95311.41;;;29.72;46.41
57801;BME280;43627;42.728;23.256;2023-07-13T07:04:40;95303.38;;;29.86;46.23
57801;BME280;43627;42.728;23.256;2023-07-13T07:07:07;95305.81;;;29.99;46.01
57801;BME280;43627;42.728;23.256;2023-07-13T07:09:33;95304.22;;;30.06;43.77
57801;BME280;43627;42.728;23.256;2023-07-13T07:12:00;95294.66;;;29.92;44.94
57801;BME280;43627;42.728;23.256;2023-07-13T07:14:30;95295.97;;;29.64;46.00
57801;BME280;43627;42.728;23.256;2023-07-13T07:16:57;95287.06;;;29.84;44.88
57801;BME280;43627;42.728;23.256;2023-07-13T07:19:27;95284.88;;;29.66;45.54
57801;BME280;43627;42.728;23.256;2023-07-13T07:21:53;95277.38;;;29.95;44.01
57801;BME280;43627;42.728;23.256;2023-07-13T07:24:20;95298.69;;;29.98;44.13
57801;BME280;43627;42.728;23.256;2023-07-13T07:26:47;95297.34;;;30.17;44.78
57801;BME280;43627;42.728;23.256;2023-07-13T07:29:16;95293.72;;;30.43;44.98
57801;BME280;43627;42.728;23.256;2023-07-13T07:31:46;95283.84;;;30.61;44.74
57801;BME280;43627;42.728;23.256;2023-07-13T07:34:29;95282.53;;;30.62;43.66
57801;BME280;43627;42.728;23.256;2023-07-13T07:36:59;95278.78;;;30.50;43.82
57801;BME280;43627;42.728;23.256;2023-07-13T07:39:30;95269.75;;;30.42;43.98
57801;BME280;43627;42.728;23.256;2023-07-13T07:41:57;95279.31;;;30.76;44.10
57801;BME280;43627;42.728;23.256;2023-07-13T07:44:24;95274.88;;;30.92;43.33
57801;BME280;43627;42.728;23.256;2023-07-13T07:46:51;95282.47;;;31.18;42.12
57801;BME280;43627;42.728;23.256;2023-07-13T07:49:17;95270.75;;;31.32;42.02
57801;BME280;43627;42.728;23.256;2023-07-13T07:51:45;95269.13;;;31.38;42.49
57801;BME280;43627;42.728;23.256;2023-07-13T07:54:11;95262.91;;;31.40;42.80
57801;BME280;43627;42.728;23.256;2023-07-13T07:56:47;95245.13;;;31.08;43.02
57801;BME280;43627;42.728;23.256;2023-07-13T07:59:34;95257.38;;;31.61;42.94
57801;BME280;43627;42.728;23.256;2023-07-13T08:02:04;95262.53;;;31.94;42.73
57801;BME280;43627;42.728;23.256;2023-07-13T08:04:33;95266.38;;;31.89;42.23
57801;BME280;43627;42.728;23.256;2023-07-13T08:07:03;95260.09;;;32.00;41.25
57801;BME280;43627;42.728;23.256;2023-07-13T08:09:30;95253.59;;;32.28;40.95
57801;BME280;43627;42.728;23.256;2023-07-13T08:11:56;95255.94;;;32.01;40.79
57801;BME280;43627;42.728;23.256;2023-07-13T08:14:26;95248.13;;;31.90;41.63
57801;BME280;43627;42.728;23.256;2023-07-13T08:17:08;95249.25;;;32.06;41.75
57801;BME280;43627;42.728;23.256;2023-07-13T08:19:35;95242.31;;;31.97;42.02
57801;BME280;43627;42.728;23.256;2023-07-13T08:22:01;95243.25;;;31.71;42.49
57801;BME280;43627;42.728;23.256;2023-07-13T08:24:28;95250.63;;;31.95;42.79
57801;BME280;43627;42.728;23.256;2023-07-13T08:26:55;95250.72;;;32.07;43.28
57801;BME280;43627;42.728;23.256;2023-07-13T08:29:21;95242.00;;;31.93;42.58
57801;BME280;43627;42.728;23.256;2023-07-13T08:31:48;95242.38;;;32.50;40.91
57801;BME280;43627;42.728;23.256;2023-07-13T08:34:15;95231.56;;;32.67;40.21
57801;BME280;43627;42.728;23.256;2023-07-13T08:36:43;95209.47;;;32.64;41.30
57801;BME280;43627;42.728;23.256;2023-07-13T08:39:10;95221.16;;;32.70;41.05
57801;BME280;43627;42.728;23.256;2023-07-13T08:41:37;95225.81;;;32.87;40.60
57801;BME280;43627;42.728;23.256;2023-07-13T08:44:07;95230.63;;;32.75;41.50
57801;BME280;43627;42.728;23.256;2023-07-13T08:46:43;95225.31;;;33.12;40.54
57801;BME280;43627;42.728;23.256;2023-07-13T08:49:13;95220.69;;;33.49;40.02
57801;BME280;43627;42.728;23.256;2023-07-13T08:54:34;95240.03;;;33.65;39.40
57801;BME280;43627;42.728;23.256;2023-07-13T08:57:11;95243.91;;;33.48;38.67
57801;BME280;43627;42.728;23.256;2023-07-13T08:59:39;95246.00;;;33.47;38.04
57801;BME280;43627;42.728;23.256;2023-07-13T09:05:14;95250.34;;;33.06;39.40
57801;BME280;43627;42.728;23.256;2023-07-13T09:10:35;95261.88;;;32.46;40.34
57801;BME280;43627;42.728;23.256;2023-07-13T09:15:59;95239.19;;;31.93;40.91
57801;BME280;43627;42.728;23.256;2023-07-13T09:21:07;95249.13;;;32.04;40.53
57801;BME280;43627;42.728;23.256;2023-07-13T09:23:37;95242.44;;;31.99;39.95
57801;BME280;43627;42.728;23.256;2023-07-13T09:26:18;95250.38;;;32.32;41.00
57801;BME280;43627;42.728;23.256;2023-07-13T09:28:48;95252.63;;;32.14;40.44
57801;BME280;43627;42.728;23.256;2023-07-13T09:31:24;95249.03;;;32.23;41.25
57801;BME280;43627;42.728;23.256;2023-07-13T09:33:53;95246.94;;;32.33;40.94
57801;BME280;43627;42.728;23.256;2023-07-13T09:36:24;95247.63;;;32.65;40.69
57801;BME280;43627;42.728;23.256;2023-07-13T09:39:12;95242.53;;;32.73;40.20
57801;BME280;43627;42.728;23.256;2023-07-13T09:42:04;95243.09;;;32.50;42.00
57801;BME280;43627;42.728;23.256;2023-07-13T09:47:24;95219.47;;;32.55;42.67
57801;BME280;43627;42.728;23.256;2023-07-13T09:50:06;95224.38;;;32.55;43.76
57801;BME280;43627;42.728;23.256;2023-07-13T09:52:48;95217.13;;;32.73;41.87
57801;BME280;43627;42.728;23.256;2023-07-13T09:57:56;95198.63;;;32.82;41.64
57801;BME280;43627;42.728;23.256;2023-07-13T10:00:27;95200.47;;;32.99;36.65
57801;BME280;43627;42.728;23.256;2023-07-13T10:03:04;95198.66;;;33.15;36.21
57801;BME280;43627;42.728;23.256;2023-07-13T10:05:43;95182.22;;;33.23;35.78
57801;BME280;43627;42.728;23.256;2023-07-13T10:08:26;95183.47;;;33.32;33.42
57801;BME280;43627;42.728;23.256;2023-07-13T10:11:20;95189.38;;;32.91;32.74
57801;BME280;43627;42.728;23.256;2023-07-13T10:16:25;95167.97;;;32.88;34.52
57801;BME280;43627;42.728;23.256;2023-07-13T10:18:56;95144.97;;;32.82;33.39
57801;BME280;43627;42.728;23.256;2023-07-13T10:21:35;95195.94;;;33.38;33.02
57801;BME280;43627;42.728;23.256;2023-07-13T10:24:12;95161.53;;;33.42;33.32
57801;BME280;43627;42.728;23.256;2023-07-13T10:26:47;95154.16;;;33.37;32.24
57801;BME280;43627;42.728;23.256;2023-07-13T10:29:16;95153.88;;;33.33;30.26
57801;BME280;43627;42.728;23.256;2023-07-13T10:31:49;95186.78;;;33.61;31.70
57801;BME280;43627;42.728;23.256;2023-07-13T10:34:19;95151.97;;;33.47;32.06
57801;BME280;43627;42.728;23.256;2023-07-13T10:36:52;95126.16;;;33.52;31.94
57801;BME280;43627;42.728;23.256;2023-07-13T10:39:36;95171.72;;;34.03;32.12
57801;BME280;43627;42.728;23.256;2023-07-13T10:42:37;95154.84;;;34.05;33.99
57801;BME280;43627;42.728;23.256;2023-07-13T10:45:20;95167.25;;;34.24;31.55
57801;BME280;43627;42.728;23.256;2023-07-13T10:47:50;95166.91;;;33.94;31.07
57801;BME280;43627;42.728;23.256;2023-07-13T10:50:23;95134.91;;;33.57;31.86
57801;BME280;43627;42.728;23.256;2023-07-13T10:53:19;95128.41;;;33.89;30.78
57801;BME280;43627;42.728;23.256;2023-07-13T10:58:33;95150.44;;;34.02;30.34
57801;BME280;43627;42.728;23.256;2023-07-13T11:04:00;95136.88;;;34.01;29.93
57801;BME280;43627;42.728;23.256;2023-07-13T11:06:39;95144.66;;;34.12;30.16
57801;BME280;43627;42.728;23.256;2023-07-13T11:09:39;95136.53;;;33.95;29.64
57801;BME280;43627;42.728;23.256;2023-07-13T11:12:27;95116.22;;;33.87;29.48
57801;BME280;43627;42.728;23.256;2023-07-13T11:23:09;95130.56;;;34.37;28.79
57801;BME280;43627;42.728;23.256;2023-07-13T11:25:37;95118.38;;;34.47;30.23
57801;BME280;43627;42.728;23.256;2023-07-13T11:30:47;95116.06;;;35.06;30.27
57801;BME280;43627;42.728;23.256;2023-07-13T11:33:28;95112.41;;;35.42;29.75
57801;BME280;43627;42.728;23.256;2023-07-13T11:38:30;95122.66;;;35.75;27.45
57801;BME280;43627;42.728;23.256;2023-07-13T11:41:02;95104.22;;;35.88;28.26
57801;BME280;43627;42.728;23.256;2023-07-13T11:43:30;95110.50;;;35.86;29.04
57801;BME280;43627;42.728;23.256;2023-07-13T11:45:57;95116.69;;;36.10;28.26
57801;BME280;43627;42.728;23.256;2023-07-13T11:48:27;95112.91;;;36.33;28.21
57801;BME280;43627;42.728;23.256;2023-07-13T11:51:03;95102.09;;;36.29;29.11
57801;BME280;43627;42.728;23.256;2023-07-13T11:53:43;95092.22;;;35.89;28.51
57801;BME280;43627;42.728;23.256;2023-07-13T11:56:11;95103.31;;;35.71;27.38
57801;BME280;43627;42.728;23.256;2023-07-13T11:58:39;95102.91;;;35.63;28.46
57801;BME280;43627;42.728;23.256;2023-07-13T12:01:06;95077.69;;;35.69;27.81
57801;BME280;43627;42.728;23.256;2023-07-13T12:03:37;95092.06;;;35.60;29.74
57801;BME280;43627;42.728;23.256;2023-07-13T12:06:21;95079.44;;;35.35;28.67
57801;BME280;43627;42.728;23.256;2023-07-13T12:08:50;95088.25;;;35.02;28.62
57801;BME280;43627;42.728;23.256;2023-07-13T12:11:18;95083.75;;;35.11;28.98
57801;BME280;43627;42.728;23.256;2023-07-13T12:13:46;95078.16;;;34.99;29.82
57801;BME280;43627;42.728;23.256;2023-07-13T12:16:20;95065.59;;;35.02;30.97
57801;BME280;43627;42.728;23.256;2023-07-13T12:18:52;95069.63;;;35.25;30.31
57801;BME280;43627;42.728;23.256;2023-07-13T12:21:26;95068.94;;;34.99;29.67
57801;BME280;43627;42.728;23.256;2023-07-13T12:23:54;95060.50;;;35.26;31.71
57801;BME280;43627;42.728;23.256;2023-07-13T12:26:21;95039.75;;;35.35;30.62
57801;BME280;43627;42.728;23.256;2023-07-13T12:28:52;95029.53;;;35.16;30.01
57801;BME280;43627;42.728;23.256;2023-07-13T12:34:03;95050.69;;;35.15;31.15
57801;BME280;43627;42.728;23.256;2023-07-13T12:36:33;95050.78;;;35.04;29.99
57801;BME280;43627;42.728;23.256;2023-07-13T12:41:41;95038.66;;;35.29;30.19
57801;BME280;43627;42.728;23.256;2023-07-13T12:44:30;95034.03;;;35.21;30.33
57801;BME280;43627;42.728;23.256;2023-07-13T12:47:04;95017.06;;;34.96;29.83
57801;BME280;43627;42.728;23.256;2023-07-13T12:49:33;95029.84;;;35.22;30.01
57801;BME280;43627;42.728;23.256;2023-07-13T12:52:09;95039.88;;;35.51;30.37
57801;BME280;43627;42.728;23.256;2023-07-13T12:54:39;95032.56;;;35.34;30.30
57801;BME280;43627;42.728;23.256;2023-07-13T12:57:17;95028.84;;;35.57;30.63
57801;BME280;43627;42.728;23.256;2023-07-13T12:59:44;94997.91;;;35.08;30.93
57801;BME280;43627;42.728;23.256;2023-07-13T13:02:31;95014.16;;;35.47;30.72
57801;BME280;43627;42.728;23.256;2023-07-13T13:04:59;95018.78;;;35.68;30.35
57801;BME280;43627;42.728;23.256;2023-07-13T13:07:26;95014.25;;;35.49;30.29
57801;BME280;43627;42.728;23.256;2023-07-13T13:09:53;95003.03;;;34.98;31.44
57801;BME280;43627;42.728;23.256;2023-07-13T13:12:22;95005.13;;;34.98;30.85
57801;BME280;43627;42.728;23.256;2023-07-13T13:14:50;95010.00;;;35.22;30.92
57801;BME280;43627;42.728;23.256;2023-07-13T13:17:21;95003.91;;;35.28;30.64
57801;BME280;43627;42.728;23.256;2023-07-13T13:19:51;95004.47;;;35.52;31.09
57801;BME280;43627;42.728;23.256;2023-07-13T13:22:21;94998.72;;;35.50;31.05
57801;BME280;43627;42.728;23.256;2023-07-13T13:24:48;95005.09;;;35.37;29.63
57801;BME280;43627;42.728;23.256;2023-07-13T13:27:21;94998.47;;;35.32;29.52
57801;BME280;43627;42.728;23.256;2023-07-13T13:29:52;95004.63;;;35.15;28.87
57801;BME280;43627;42.728;23.256;2023-07-13T13:32:19;94998.47;;;35.32;29.87
57801;BME280;43627;42.728;23.256;2023-07-13T13:34:46;94996.38;;;35.60;29.31
57801;BME280;43627;42.728;23.256;2023-07-13T13:37:21;94990.28;;;35.52;30.79
57801;BME280;43627;42.728;23.256;2023-07-13T13:39:49;94976.34;;;35.42;31.23
57801;BME280;43627;42.728;23.256;2023-07-13T13:42:33;94992.81;;;35.60;31.22
57801;BME280;43627;42.728;23.256;2023-07-13T13:45:00;94980.13;;;35.74;29.86
57801;BME280;43627;42.728;23.256;2023-07-13T13:47:31;94985.47;;;35.41;28.72
57801;BME280;43627;42.728;23.256;2023-07-13T13:49:59;94981.38;;;35.44;29.33
57801;BME280;43627;42.728;23.256;2023-07-13T13:52:27;94987.97;;;35.35;28.91
57801;BME280;43627;42.728;23.256;2023-07-13T13:54:53;94979.88;;;35.29;29.32
57801;BME280;43627;42.728;23.256;2023-07-13T13:57:23;94978.97;;;35.52;29.20
57801;BME280;43627;42.728;23.256;2023-07-13T13:59:51;94977.28;;;35.47;29.30
57801;BME280;43627;42.728;23.256;2023-07-13T14:02:29;94982.88;;;35.45;29.74
57801;BME280;43627;42.728;23.256;2023-07-13T14:04:59;94971.19;;;35.39;29.38
57801;BME280;43627;42.728;23.256;2023-07-13T14:07:28;94971.91;;;35.53;29.02
57801;BME280;43627;42.728;23.256;2023-07-13T14:09:57;94982.00;;;35.56;29.42
57801;BME280;43627;42.728;23.256;2023-07-13T14:12:24;94978.03;;;35.47;29.27
57801;BME280;43627;42.728;23.256;2023-07-13T14:14:55;94973.50;;;35.56;30.00
57801;BME280;43627;42.728;23.256;2023-07-13T14:17:26;94986.00;;;35.51;28.92
57801;BME280;43627;42.728;23.256;2023-07-13T14:19:54;94972.47;;;35.63;28.79
57801;BME280;43627;42.728;23.256;2023-07-13T14:22:24;94969.72;;;35.52;29.52
57801;BME280;43627;42.728;23.256;2023-07-13T14:24:55;94970.25;;;35.48;30.45
57801;BME280;43627;42.728;23.256;2023-07-13T14:27:24;94962.56;;;35.37;29.00
57801;BME280;43627;42.728;23.256;2023-07-13T14:29:51;94978.13;;;35.49;29.25
57801;BME280;43627;42.728;23.256;2023-07-13T14:32:18;94950.31;;;35.46;29.27
57801;BME280;43627;42.728;23.256;2023-07-13T14:34:45;94969.09;;;35.53;28.87
57801;BME280;43627;42.728;23.256;2023-07-13T14:37:13;94964.69;;;35.64;29.65
57801;BME280;43627;42.728;23.256;2023-07-13T14:39:43;94967.94;;;35.58;30.36
57801;BME280;43627;42.728;23.256;2023-07-13T14:42:10;94957.97;;;35.57;30.54
57801;BME280;43627;42.728;23.256;2023-07-13T14:44:37;94968.25;;;35.64;30.17
57801;BME280;43627;42.728;23.256;2023-07-13T14:47:06;94956.91;;;35.64;30.85
57801;BME280;43627;42.728;23.256;2023-07-13T14:49:39;94957.09;;;35.82;30.03
57801;BME280;43627;42.728;23.256;2023-07-13T14:52:19;94945.34;;;35.60;28.88
57801;BME280;43627;42.728;23.256;2023-07-13T14:54:48;94964.75;;;35.80;30.63
57801;BME280;43627;42.728;23.256;2023-07-13T14:57:18;94959.19;;;35.82;30.72
57801;BME280;43627;42.728;23.256;2023-07-13T14:59:47;94957.09;;;35.96;30.47
57801;BME280;43627;42.728;23.256;2023-07-13T15:02:35;94961.41;;;35.83;30.04
57801;BME280;43627;42.728;23.256;2023-07-13T15:05:13;94953.31;;;35.77;30.53
57801;BME280;43627;42.728;23.256;2023-07-13T15:07:45;94966.84;;;35.79;30.77
57801;BME280;43627;42.728;23.256;2023-07-13T15:10:33;94942.69;;;35.78;30.86
57801;BME280;43627;42.728;23.256;2023-07-13T15:13:20;94944.63;;;35.60;31.28
57801;BME280;43627;42.728;23.256;2023-07-13T15:15:51;94928.13;;;35.42;31.78
57801;BME280;43627;42.728;23.256;2023-07-13T15:18:21;94954.72;;;35.49;31.48
57801;BME280;43627;42.728;23.256;2023-07-13T15:20:49;94954.06;;;35.37;31.56
57801;BME280;43627;42.728;23.256;2023-07-13T15:23:17;94927.38;;;35.14;31.73
57801;BME280;43627;42.728;23.256;2023-07-13T15:25:45;94963.13;;;35.47;32.65
57801;BME280;43627;42.728;23.256;2023-07-13T15:28:12;94967.00;;;35.40;32.49
57801;BME280;43627;42.728;23.256;2023-07-13T15:30:47;94942.22;;;35.40;32.67
57801;BME280;43627;42.728;23.256;2023-07-13T15:33:24;94943.47;;;35.51;33.29
57801;BME280;43627;42.728;23.256;2023-07-13T15:35:52;94950.59;;;35.52;31.60
57801;BME280;43627;42.728;23.256;2023-07-13T15:38:24;94953.97;;;35.35;32.01
57801;BME280;43627;42.728;23.256;2023-07-13T15:40:52;94945.75;;;35.27;31.95
57801;BME280;43627;42.728;23.256;2023-07-13T15:43:20;94950.16;;;35.30;32.95
57801;BME280;43627;42.728;23.256;2023-07-13T15:45:47;94935.78;;;35.12;32.09
57801;BME280;43627;42.728;23.256;2023-07-13T15:48:43;94955.31;;;35.34;33.00
57801;BME280;43627;42.728;23.256;2023-07-13T15:51:20;94956.38;;;35.27;31.84
57801;BME280;43627;42.728;23.256;2023-07-13T15:53:49;94953.22;;;35.20;32.52
57801;BME280;43627;42.728;23.256;2023-07-13T15:56:21;94949.94;;;35.12;33.27
57801;BME280;43627;42.728;23.256;2023-07-13T15:58:50;94939.78;;;35.07;33.21
57801;BME280;43627;42.728;23.256;2023-07-13T16:01:17;94950.78;;;35.01;33.53
57801;BME280;43627;42.728;23.256;2023-07-13T16:03:46;94885.75;;;34.64;34.44
57801;BME280;43627;42.728;23.256;2023-07-13T16:06:16;94938.19;;;34.90;33.59
57801;BME280;43627;42.728;23.256;2023-07-13T16:08:46;94948.78;;;35.04;33.47
57801;BME280;43627;42.728;23.256;2023-07-13T16:11:25;94944.28;;;35.12;33.42
57801;BME280;43627;42.728;23.256;2023-07-13T16:13:53;94949.75;;;35.08;34.17
57801;BME280;43627;42.728;23.256;2023-07-13T16:16:30;94933.25;;;34.91;34.80
57801;BME280;43627;42.728;23.256;2023-07-13T16:18:59;94950.03;;;35.01;34.54
57801;BME280;43627;42.728;23.256;2023-07-13T16:21:27;94921.34;;;34.81;33.23
57801;BME280;43627;42.728;23.256;2023-07-13T16:23:56;94926.25;;;34.67;34.25
57801;BME280;43627;42.728;23.256;2023-07-13T16:26:34;94942.19;;;34.74;33.43
57801;BME280;43627;42.728;23.256;2023-07-13T16:29:22;94936.78;;;34.78;34.99
57801;BME280;43627;42.728;23.256;2023-07-13T16:32:12;94928.59;;;34.45;35.16
57801;BME280;43627;42.728;23.256;2023-07-13T16:34:41;94905.53;;;34.25;34.40
57801;BME280;43627;42.728;23.256;2023-07-13T16:37:13;94947.63;;;34.30;34.55
57801;BME280;43627;42.728;23.256;2023-07-13T16:39:48;94920.38;;;34.12;34.81
57801;BME280;43627;42.728;23.256;2023-07-13T16:42:15;94920.16;;;34.07;34.57
57801;BME280;43627;42.728;23.256;2023-07-13T16:44:42;94951.88;;;34.06;35.13
57801;BME280;43627;42.728;23.256;2023-07-13T16:47:14;94943.59;;;33.85;35.96
57801;BME280;43627;42.728;23.256;2023-07-13T16:49:41;94935.72;;;33.83;36.07
57801;BME280;43627;42.728;23.256;2023-07-13T16:52:13;94937.81;;;33.71;36.73
57801;BME280;43627;42.728;23.256;2023-07-13T16:54:40;94946.81;;;33.67;37.22
57801;BME280;43627;42.728;23.256;2023-07-13T16:57:31;94934.59;;;33.39;38.27
57801;BME280;43627;42.728;23.256;2023-07-13T17:00:00;94927.69;;;33.31;38.30
57801;BME280;43627;42.728;23.256;2023-07-13T17:02:36;94934.31;;;33.23;38.79
57801;BME280;43627;42.728;23.256;2023-07-13T17:05:09;94955.06;;;33.16;38.65
57801;BME280;43627;42.728;23.256;2023-07-13T17:07:36;94943.66;;;32.91;38.79
57801;BME280;43627;42.728;23.256;2023-07-13T17:10:06;94944.75;;;32.86;39.15
57801;BME280;43627;42.728;23.256;2023-07-13T17:12:33;94950.25;;;32.72;38.58
57801;BME280;43627;42.728;23.256;2023-07-13T17:15:01;94954.03;;;32.65;39.15
57801;BME280;43627;42.728;23.256;2023-07-13T17:17:33;94946.16;;;32.52;40.07
57801;BME280;43627;42.728;23.256;2023-07-13T17:20:05;94930.03;;;32.31;40.18
57801;BME280;43627;42.728;23.256;2023-07-13T17:22:37;94932.63;;;32.38;40.45
57801;BME280;43627;42.728;23.256;2023-07-13T17:25:11;94926.06;;;32.24;39.89
57801;BME280;43627;42.728;23.256;2023-07-13T17:27:40;94898.59;;;31.92;41.24
57801;BME280;43627;42.728;23.256;2023-07-13T17:30:21;94911.94;;;31.79;41.10
57801;BME280;43627;42.728;23.256;2023-07-13T17:32:50;94931.50;;;31.99;41.36
57801;BME280;43627;42.728;23.256;2023-07-13T17:35:28;94943.78;;;32.03;42.00
57801;BME280;43627;42.728;23.256;2023-07-13T17:37:58;94946.94;;;31.98;42.45
57801;BME280;43627;42.728;23.256;2023-07-13T17:40:26;94960.72;;;32.03;38.64
57801;BME280;43627;42.728;23.256;2023-07-13T17:43:01;94867.78;;;31.30;38.39
57801;BME280;43627;42.728;23.256;2023-07-13T17:45:43;94970.44;;;31.91;39.33
57801;BME280;43627;42.728;23.256;2023-07-13T17:48:26;94965.75;;;31.83;39.63
57801;BME280;43627;42.728;23.256;2023-07-13T17:50:55;94951.44;;;31.70;39.72
57801;BME280;43627;42.728;23.256;2023-07-13T17:53:26;94971.97;;;31.61;40.53
57801;BME280;43627;42.728;23.256;2023-07-13T17:55:53;94968.34;;;31.48;41.39
57801;BME280;43627;42.728;23.256;2023-07-13T17:58:28;94944.38;;;31.07;42.04
57801;BME280;43627;42.728;23.256;2023-07-13T18:03:37;94913.50;;;30.37;42.23
57801;BME280;43627;42.728;23.256;2023-07-13T18:06:23;94937.78;;;30.42;41.81
57801;BME280;43627;42.728;23.256;2023-07-13T18:08:59;94963.09;;;30.42;43.17
57801;BME280;43627;42.728;23.256;2023-07-13T18:11:38;94984.84;;;30.32;44.27
57801;BME280;43627;42.728;23.256;2023-07-13T18:14:08;94927.75;;;29.71;45.25
57801;BME280;43627;42.728;23.256;2023-07-13T18:16:36;94998.63;;;29.89;47.16
57801;BME280;43627;42.728;23.256;2023-07-13T18:21:59;94937.44;;;29.32;48.36
57801;BME280;43627;42.728;23.256;2023-07-13T18:24:29;94976.09;;;29.50;49.21
57801;BME280;43627;42.728;23.256;2023-07-13T18:26:57;94980.63;;;29.46;49.70
57801;BME280;43627;42.728;23.256;2023-07-13T18:29:24;95001.53;;;29.52;49.72
57801;BME280;43627;42.728;23.256;2023-07-13T18:31:51;94954.13;;;29.20;50.27
57801;BME280;43627;42.728;23.256;2023-07-13T18:34:18;94990.81;;;29.41;51.02
57801;BME280;43627;42.728;23.256;2023-07-13T18:36:45;95003.25;;;29.38;51.14
57801;BME280;43627;42.728;23.256;2023-07-13T18:39:14;94974.63;;;29.13;51.66
57801;BME280;43627;42.728;23.256;2023-07-13T18:41:45;95012.50;;;29.21;53.09
57801;BME280;43627;42.728;23.256;2023-07-13T18:44:24;94967.03;;;28.69;54.20
57801;BME280;43627;42.728;23.256;2023-07-13T18:46:53;94968.06;;;28.64;54.99
57801;BME280;43627;42.728;23.256;2023-07-13T18:49:21;95018.97;;;28.87;54.61
57801;BME280;43627;42.728;23.256;2023-07-13T18:51:49;95001.63;;;28.71;54.05
57801;BME280;43627;42.728;23.256;2023-07-13T18:54:32;95028.88;;;28.88;52.60
57801;BME280;43627;42.728;23.256;2023-07-13T18:57:03;94962.66;;;28.49;51.76
57801;BME280;43627;42.728;23.256;2023-07-13T18:59:52;95009.28;;;28.71;51.83
57801;BME280;43627;42.728;23.256;2023-07-13T19:02:19;94996.81;;;28.55;51.40
57801;BME280;43627;42.728;23.256;2023-07-13T19:04:47;94996.94;;;28.57;51.54
57801;BME280;43627;42.728;23.256;2023-07-13T19:07:15;94987.94;;;28.31;52.10
57801;BME280;43627;42.728;23.256;2023-07-13T19:09:42;95015.22;;;28.31;52.59
57801;BME280;43627;42.728;23.256;2023-07-13T19:25:51;95026.47;;;27.96;55.01
57801;BME280;43627;42.728;23.256;2023-07-13T19:31:18;95049.75;;;27.81;55.89
57801;BME280;43627;42.728;23.256;2023-07-13T19:33:48;95038.81;;;27.51;58.58
57801;BME280;43627;42.728;23.256;2023-07-13T19:36:19;95050.66;;;27.42;59.30
57801;BME280;43627;42.728;23.256;2023-07-13T19:38:48;95050.53;;;27.32;61.60
57801;BME280;43627;42.728;23.256;2023-07-13T19:41:19;95050.16;;;27.11;63.25
57801;BME280;43627;42.728;23.256;2023-07-13T19:43:48;95048.19;;;26.88;65.64
57801;BME280;43627;42.728;23.256;2023-07-13T19:46:19;95048.97;;;26.81;67.32
57801;BME280;43627;42.728;23.256;2023-07-13T19:48:48;95044.97;;;26.67;67.71
57801;BME280;43627;42.728;23.256;2023-07-13T19:51:17;95053.16;;;26.72;67.61
57801;BME280;43627;42.728;23.256;2023-07-13T19:53:54;95046.84;;;26.64;67.05
57801;BME280;43627;42.728;23.256;2023-07-13T19:56:23;95052.38;;;26.72;66.09
57801;BME280;43627;42.728;23.256;2023-07-13T19:58:50;95056.91;;;26.67;64.58
57801;BME280;43627;42.728;23.256;2023-07-13T20:01:19;95057.44;;;26.73;63.50
57801;BME280;43627;42.728;23.256;2023-07-13T20:03:46;95046.84;;;26.64;63.42
57801;BME280;43627;42.728;23.256;2023-07-13T20:06:32;95061.47;;;26.80;63.23
57801;BME280;43627;42.728;23.256;2023-07-13T20:09:01;95053.19;;;26.65;66.80
57801;BME280;43627;42.728;23.256;2023-07-13T20:11:28;95059.38;;;26.56;66.30
57801;BME280;43627;42.728;23.256;2023-07-13T20:13:55;95067.03;;;26.55;63.92
57801;BME280;43627;42.728;23.256;2023-07-13T20:16:22;95060.16;;;26.48;65.80
57801;BME280;43627;42.728;23.256;2023-07-13T20:18:50;95057.34;;;26.48;67.67
57801;BME280;43627;42.728;23.256;2023-07-13T20:21:16;95049.16;;;26.43;65.10
57801;BME280;43627;42.728;23.256;2023-07-13T20:23:43;95054.97;;;26.45;65.72
57801;BME280;43627;42.728;23.256;2023-07-13T20:26:12;95051.44;;;26.44;67.07
57801;BME280;43627;42.728;23.256;2023-07-13T20:28:39;95029.81;;;26.45;63.85
57801;BME280;43627;42.728;23.256;2023-07-13T20:31:12;95045.38;;;26.63;62.69
57801;BME280;43627;42.728;23.256;2023-07-13T20:33:41;95043.03;;;26.77;61.06
57801;BME280;43627;42.728;23.256;2023-07-13T20:36:27;95049.09;;;26.91;62.07
57801;BME280;43627;42.728;23.256;2023-07-13T20:38:55;94992.59;;;26.60;65.77
57801;BME280;43627;42.728;23.256;2023-07-13T20:41:22;95024.59;;;26.74;67.20
57801;BME280;43627;42.728;23.256;2023-07-13T20:43:48;95044.00;;;26.72;67.11
57801;BME280;43627;42.728;23.256;2023-07-13T20:46:17;95042.97;;;26.52;68.55
57801;BME280;43627;42.728;23.256;2023-07-13T20:48:45;95047.13;;;26.43;67.76
57801;BME280;43627;42.728;23.256;2023-07-13T20:51:18;95049.09;;;26.10;69.71
57801;BME280;43627;42.728;23.256;2023-07-13T20:53:49;95047.28;;;25.90;71.42
57801;BME280;43627;42.728;23.256;2023-07-13T20:56:24;95034.66;;;25.74;73.28
57801;BME280;43627;42.728;23.256;2023-07-13T20:58:52;95042.66;;;25.47;76.78
57801;BME280;43627;42.728;23.256;2023-07-13T21:01:27;95035.97;;;25.27;79.02
57801;BME280;43627;42.728;23.256;2023-07-13T21:03:58;95036.50;;;25.10;79.96
57801;BME280;43627;42.728;23.256;2023-07-13T21:06:26;95052.09;;;24.98;81.40
57801;BME280;43627;42.728;23.256;2023-07-13T21:08:57;95049.50;;;24.92;82.55